^^
Station Historical Data
Daily Summary for September 30, 2017 Units:  Metric    English   Both
« Previous Day
Next Day »
Daily Weekly Monthly Yearly Custom
  High: Low: Average:
Temperature: 32.3 °C 11.1 °C 20.4 °C
Dew Point: 5.5 °C -5.8 °C 1.6 °C
Humidity: 65% 11% 35%
Wind Speed: 13km/h 0km/h 2.6km/h
Wind Gust: 17.7km/h - -
Wind- - SW
Pressure: 1015.1 hPa 1008.7 hPa -
Precipitation: 0 mm    
Historical Graphs
 
 
Tabular Data for September 30, 2017
Time Temperature Dew Point Pressure Wind Wind Speed Wind Gust Humidity Rainfall Rate (Hourly) solar Conditions
00:03 17.7 °C 5 °C 1014.4 hPa SW 11.1 km/h 14.5 km/h 43% 0 mm 0.0 W/m2
00:08 17.7 °C 5.3 °C 1014.4 hPa SW 11.1 km/h 12.9 km/h 44% 0 mm 0.0 W/m2
00:13 17.6 °C 5.2 °C 1014.4 hPa SW 11.1 km/h 11.3 km/h 44% 0 mm 0.0 W/m2
00:18 17.4 °C 5.3 °C 1014.4 hPa SW 11.1 km/h 14.5 km/h 45% 0 mm 0.0 W/m2
00:23 17.3 °C 5.3 °C 1014.4 hPa SW 11.1 km/h 12.9 km/h 45% 0 mm 0.0 W/m2
00:28 17.2 °C 5.2 °C 1014.4 hPa SW 11.1 km/h 16.1 km/h 45% 0 mm 0.0 W/m2
00:34 17.2 °C 5.5 °C 1014.4 hPa SW 11.1 km/h 14.5 km/h 46% 0 mm 0.0 W/m2
00:39 17.2 °C 5.5 °C 1014.4 hPa SW 11.1 km/h 16.1 km/h 46% 0 mm 0.0 W/m2
00:44 17 °C 5.3 °C 1014.4 hPa SW 11.1 km/h 16.1 km/h 46% 0 mm 0.0 W/m2
00:54 16.7 °C 5 °C 1014.4 hPa SW 11.1 km/h 14.5 km/h 46% 0 mm 0.0 W/m2
00:59 16.6 °C 5.2 °C 1014.8 hPa SW 7.9 km/h 12.9 km/h 47% 0 mm 0.0 W/m2
01:04 16.6 °C 5.2 °C 1014.8 hPa SW 9.7 km/h 11.3 km/h 47% 0 mm 0.0 W/m2
01:09 16.4 °C 5.1 °C 1014.8 hPa SW 7.9 km/h 8 km/h 47% 0 mm 0.0 W/m2
01:19 16.1 °C 5.1 °C 1014.8 hPa SW 4.7 km/h 8 km/h 48% 0 mm 0.0 W/m2
01:24 15.8 °C 4.8 °C 1014.8 hPa SW 7.9 km/h 8 km/h 48% 0 mm 0.0 W/m2
01:29 15.5 °C 4.8 °C 1014.4 hPa SW 7.9 km/h 9.7 km/h 49% 0 mm 0.0 W/m2
01:34 15.3 °C 4.9 °C 1014.4 hPa SW 7.9 km/h 9.7 km/h 50% 0 mm 0.0 W/m2
01:39 15.2 °C 4.8 °C 1014.4 hPa SW 9.7 km/h 11.3 km/h 50% 0 mm 0.0 W/m2
01:49 15.1 °C 5 °C 1014.4 hPa SW 9.7 km/h 9.7 km/h 51% 0 mm 0.0 W/m2
01:54 14.9 °C 4.9 °C 1014.4 hPa SW 7.9 km/h 9.7 km/h 51% 0 mm 0.0 W/m2
02:04 14.9 °C 4.9 °C 1014.4 hPa SW 7.9 km/h 9.7 km/h 51% 0 mm 0.0 W/m2
02:10 14.8 °C 5 °C 1014.1 hPa SW 6.4 km/h 8 km/h 52% 0 mm 0.0 W/m2
02:15 14.6 °C 4.6 °C 1014.1 hPa Calm   4.8 km/h 51% 0 mm 0.0 W/m2
02:20 14.3 °C 4.6 °C 1014.1 hPa Calm     52% 0 mm 0.0 W/m2
02:26 14 °C 4.3 °C 1014.1 hPa Calm     52% 0 mm 0.0 W/m2
02:31 13.7 °C 4.3 °C 1014.1 hPa Calm     53% 0 mm 0.0 W/m2
02:36 13.4 °C 4.5 °C 1014.1 hPa Calm     55% 0 mm 0.0 W/m2
02:41 13.3 °C 4.4 °C 1014.1 hPa Calm     55% 0 mm 0.0 W/m2
02:46 13.3 °C 5 °C 1014.1 hPa Calm     57% 0 mm 0.0 W/m2
02:52 13.3 °C 5 °C 1014.1 hPa Calm     57% 0 mm 0.0 W/m2
02:57 13.2 °C 4.9 °C 1014.1 hPa Calm     57% 0 mm 0.0 W/m2
03:07 13.1 °C 4.8 °C 1013.8 hPa Calm     57% 0 mm 0.0 W/m2
03:12 12.9 °C 4.8 °C 1013.8 hPa Calm     58% 0 mm 0.0 W/m2
03:22 12.6 °C 4.8 °C 1013.8 hPa Calm     59% 0 mm 0.0 W/m2
03:33 12.4 °C 3.9 °C 1013.8 hPa Calm     56% 0 mm 0.0 W/m2
03:38 12.3 °C 4.5 °C 1013.4 hPa Calm     59% 0 mm 0.0 W/m2
03:43 12.4 °C 4.1 °C 1013.8 hPa Calm     57% 0 mm 0.0 W/m2
03:48 12.3 °C 3.8 °C 1013.4 hPa Calm     56% 0 mm 0.0 W/m2
03:53 12.1 °C 4.1 °C 1013.8 hPa Calm     58% 0 mm 0.0 W/m2
03:58 12 °C 4.2 °C 1013.8 hPa Calm     59% 0 mm 0.0 W/m2
04:04 11.9 °C 3.9 °C 1013.8 hPa Calm     58% 0 mm 0.0 W/m2
04:09 11.8 °C 4.3 °C 1013.8 hPa Calm     60% 0 mm 0.0 W/m2
04:15 11.9 °C 4.4 °C 1013.8 hPa Calm     60% 0 mm 0.0 W/m2
04:20 12.2 °C 4.9 °C 1013.8 hPa Calm     61% 0 mm 0.0 W/m2
04:25 12.4 °C 4.9 °C 1013.8 hPa Calm     60% 0 mm 0.0 W/m2
04:30 12.6 °C 4.8 °C 1013.8 hPa Calm     59% 0 mm 0.0 W/m2
04:37 12.6 °C 4.8 °C 1013.8 hPa Calm     59% 0 mm 0.0 W/m2
04:47 12.4 °C 4.9 °C 1014.1 hPa Calm     60% 0 mm 0.0 W/m2
04:52 12.3 °C 4.8 °C 1014.1 hPa Calm     60% 0 mm 0.0 W/m2
05:02 11.9 °C 4.4 °C 1014.1 hPa Calm     60% 0 mm 0.0 W/m2
05:12 12.1 °C 5 °C 1014.4 hPa Calm     62% 0 mm 0.0 W/m2
05:22 12.3 °C 4.3 °C 1014.4 hPa Calm     58% 0 mm 0.0 W/m2
05:27 11.9 °C 4.1 °C 1014.4 hPa Calm     59% 0 mm 0.0 W/m2
05:34 11.8 °C 4.8 °C 1014.4 hPa Calm     62% 0 mm 0.0 W/m2
05:39 11.8 °C 5 °C 1014.4 hPa Calm     63% 0 mm 0.0 W/m2
05:49 11.6 °C 4.8 °C 1014.4 hPa Calm     63% 0 mm 0.0 W/m2
06:04 11.9 °C 5.3 °C 1014.4 hPa Calm     64% 0 mm 0.0 W/m2
06:13 11.7 °C 5.1 °C 1014.8 hPa Calm     64% 0 mm 0.0 W/m2
06:18 11.6 °C 5 °C 1014.8 hPa Calm     64% 0 mm 0.0 W/m2
06:24 11.3 °C 4.3 °C 1014.8 hPa Calm     62% 0 mm 0.0 W/m2
06:34 11.1 °C 4.8 °C 1014.8 hPa Calm     65% 0 mm 9.0 W/m2
06:40 11.3 °C 4.7 °C 1014.8 hPa Calm     64% 0 mm 14.0 W/m2
06:49 11.3 °C 4.5 °C 1015.1 hPa Calm     63% 0 mm 26.0 W/m2
06:54 11.4 °C 4.4 °C 1014.8 hPa Calm     62% 0 mm 35.0 W/m2
07:06 11.7 °C 4.7 °C 1015.1 hPa Calm     62% 0 mm 60.0 W/m2
07:36 13.1 °C 5 °C 1015.1 hPa Calm     58% 0 mm 137.0 W/m2
07:51 14.7 °C 5.5 °C 1015.1 hPa Calm     54% 0 mm 216.0 W/m2
08:05 16.2 °C 5.5 °C 1014.8 hPa Calm     49% 0 mm 274.0 W/m2
08:21 17.7 °C 3.9 °C 1014.8 hPa Calm     40% 0 mm 330.0 W/m2
08:52 19.9 °C 2.3 °C 1014.4 hPa Calm     31% 0 mm 439.0 W/m2
09:05 21.1 °C 1.9 °C 1014.4 hPa Calm     28% 0 mm 492.0 W/m2
09:24 22.3 °C 1.9 °C 1014.4 hPa Calm     26% 0 mm 555.0 W/m2
09:33 22.4 °C 1.4 °C 1014.4 hPa Calm     25% 0 mm 587.0 W/m2
09:38 22.6 °C 1 °C 1014.4 hPa Calm     24% 0 mm 601.0 W/m2
09:49 23.3 °C 0.4 °C 1014.1 hPa Calm     22% 0 mm 631.0 W/m2
09:54 23.4 °C 0.5 °C 1014.1 hPa Calm     22% 0 mm 647.0 W/m2
10:04 24.2 °C 0.5 °C 1014.1 hPa Calm     21% 0 mm 677.0 W/m2
10:09 24.4 °C 1.3 °C 1014.1 hPa Calm     22% 0 mm 691.0 W/m2
10:14 24.4 °C 0.7 °C 1014.1 hPa Calm     21% 0 mm 703.0 W/m2
10:25 24.7 °C 0.9 °C 1014.1 hPa Calm     21% 0 mm 726.0 W/m2
10:31 25.1 °C 0.6 °C 1014.1 hPa Calm     20% 0 mm 737.0 W/m2
10:39 25.6 °C -0.5 °C 1013.8 hPa Calm     18% 0 mm 766.0 W/m2
10:45 25.8 °C -0.3 °C 1013.8 hPa Calm     18% 0 mm 780.0 W/m2
10:50 26.1 °C -0.9 °C 1013.8 hPa Calm     17% 0 mm 793.0 W/m2
10:56 26.3 °C 0.1 °C 1013.8 hPa Calm     18% 0 mm 810.0 W/m2
11:01 26.1 °C -0.1 °C 1013.4 hPa Calm     18% 0 mm 821.0 W/m2
11:06 26 °C -0.9 °C 1013.4 hPa Calm     17% 0 mm 805.0 W/m2
11:16 26.3 °C -0.7 °C 1013.4 hPa Calm     17% 0 mm 800.0 W/m2
11:26 26.8 °C -1.1 °C 1013.4 hPa Calm     16% 0 mm 877.0 W/m2
11:31 27.1 °C -0.9 °C 1013.1 hPa Calm     16% 0 mm 888.0 W/m2
11:37 27.4 °C -1.5 °C 1013.1 hPa Calm     15% 0 mm 875.0 W/m2
11:42 27.9 °C -1.1 °C 1013.1 hPa Calm     15% 0 mm 870.0 W/m2
11:53 28 °C -1 °C 1012.8 hPa SW 1.4 km/h 1.6 km/h 15% 0 mm 786.0 W/m2
12:00 27.8 °C -1.2 °C 1012.8 hPa Calm     15% 0 mm 812.0 W/m2
12:29 28.7 °C -0.5 °C 1012.4 hPa Calm     15% 0 mm 837.0 W/m2
12:45 29.7 °C -0.6 °C 1012.4 hPa Calm     14% 0 mm 972.0 W/m2
13:00 29.7 °C -0.6 °C 1011.7 hPa SW 3.2 km/h 8 km/h 14% 0 mm 921.0 W/m2
13:13 30.1 °C -0.3 °C 1011.4 hPa Calm     14% 0 mm 972.0 W/m2
13:23 30.7 °C -0.9 °C 1011.4 hPa SW 3.2 km/h 9.7 km/h 13% 0 mm 591.0 W/m2
13:34 30.7 °C 0.1 °C 1011.1 hPa Calm   1.6 km/h 14% 0 mm 846.0 W/m2
13:46 31.6 °C -0.2 °C 1011.1 hPa Calm   1.6 km/h 13% 0 mm 888.0 W/m2
14:00 30.8 °C -0.8 °C 1010.7 hPa SW 3.2 km/h 3.2 km/h 13% 0 mm 703.0 W/m2
14:46 31.9 °C 0.1 °C 1010 hPa SW 4.7 km/h 12.9 km/h 13% 0 mm 471.0 W/m2
15:01 31.6 °C -0.2 °C 1010 hPa Calm     13% 0 mm 378.0 W/m2
15:17 31.3 °C -0.4 °C 1009.7 hPa Calm     13% 0 mm 311.0 W/m2
15:32 31.5 °C -0.3 °C 1009.4 hPa Calm     13% 0 mm 666.0 W/m2
15:47 32.3 °C -0.7 °C 1009.4 hPa SW 13 km/h 16.1 km/h 12% 0 mm 181.0 W/m2
15:57 31.6 °C -1.3 °C 1009 hPa Calm     12% 0 mm 279.0 W/m2
16:08 31.4 °C -1.4 °C 1009 hPa SW 11.1 km/h 14.5 km/h 12% 0 mm 199.0 W/m2
16:37 31.1 °C -1.7 °C 1009.4 hPa SW 6.4 km/h 11.3 km/h 12% 0 mm 279.0 W/m2
16:58 31.1 °C -1.7 °C 1009 hPa Calm     12% 0 mm 158.0 W/m2
17:11 31 °C -0.6 °C 1009 hPa SW 11.1 km/h 14.5 km/h 13% 0 mm 139.0 W/m2
17:33 30.7 °C -0.9 °C 1009 hPa SW 9.7 km/h 14.5 km/h 13% 0 mm 111.0 W/m2
17:44 30.7 °C -2 °C 1009 hPa SW 11.1 km/h 12.9 km/h 12% 0 mm 104.0 W/m2
17:58 30.7 °C -2 °C 1009 hPa SW 13 km/h 13 km/h 12% 0 mm 176.0 W/m2
18:07 30.8 °C -1.9 °C 1008.7 hPa SW 7.9 km/h 14.5 km/h 12% 0 mm 135.0 W/m2
18:18 30.7 °C -2 °C 1008.7 hPa SW 9.7 km/h 14.5 km/h 12% 0 mm 88.0 W/m2
18:30 30.6 °C -2 °C 1009 hPa SW 9.7 km/h 17.7 km/h 12% 0 mm 51.0 W/m2
19:01 29.9 °C -3.8 °C 1009 hPa SW 11.1 km/h 16.1 km/h 11% 0 mm 5.0 W/m2
19:17 29.4 °C -4.1 °C 1009 hPa SW 9.7 km/h 12.9 km/h 11% 0 mm 0.0 W/m2
19:30 28.7 °C -3.5 °C 1009.4 hPa SW 7.9 km/h 8 km/h 12% 0 mm 0.0 W/m2
19:45 27.8 °C -4.2 °C 1009.7 hPa SW 6.4 km/h 8 km/h 12% 0 mm 0.0 W/m2
20:16 26.2 °C -3.4 °C 1010 hPa Calm     14% 0 mm 0.0 W/m2
21:44 22.7 °C -3.6 °C 1010.7 hPa Calm     17% 0 mm 0.0 W/m2
21:59 22.8 °C -3.5 °C 1010.4 hPa Calm     17% 0 mm 0.0 W/m2
22:16 22.6 °C -3.7 °C 1010.4 hPa Calm     17% 0 mm 0.0 W/m2
22:33 22.4 °C -3.9 °C 1010.4 hPa Calm     17% 0 mm 0.0 W/m2
22:43 23.4 °C -4.7 °C 1010 hPa Calm     15% 0 mm 0.0 W/m2
22:52 24.3 °C -4.9 °C 1010 hPa Calm     14% 0 mm 0.0 W/m2
23:02 24.4 °C -5.8 °C 1010.4 hPa Calm     13% 0 mm 0.0 W/m2
23:07 24.8 °C -5.5 °C 1010 hPa Calm     13% 0 mm 0.0 W/m2
23:13 25 °C -5.3 °C 1010 hPa Calm     13% 0 mm 0.0 W/m2
23:20 24.9 °C -5.4 °C 1010 hPa Calm     13% 0 mm 0.0 W/m2
23:26 24.7 °C -4.6 °C 1010 hPa Calm     14% 0 mm 0.0 W/m2
23:37 24.1 °C -5.1 °C 1010 hPa Calm     14% 0 mm 0.0 W/m2
23:49 23.7 °C -5.4 °C 1010 hPa Calm     14% 0 mm 0.0 W/m2
23:59 23.6 °C -5.5 °C 1010 hPa Calm     14% 0 mm 0.0 W/m2
Canyon Roadhouse, Fishriver Canyon, Namibia
Compliments of Weather Underground - 2.25 mb